sensor_id;sensor_type;location;lat;lon;timestamp;P1;durP1;ratioP1;P2;durP2;ratioP2
62535;SDS011;63050;47.514;18.920;2023-04-15T00:04:57;9.30;;;8.10;;
62535;SDS011;63050;47.514;18.920;2023-04-15T00:09:58;10.00;;;8.20;;
62535;SDS011;63050;47.514;18.920;2023-04-15T00:14:59;7.50;;;6.80;;
62535;SDS011;63050;47.514;18.920;2023-04-15T00:20:00;6.60;;;5.90;;
62535;SDS011;63050;47.514;18.920;2023-04-15T00:25:01;5.60;;;5.10;;
62535;SDS011;63050;47.514;18.920;2023-04-15T00:30:02;5.10;;;4.60;;
62535;SDS011;63050;47.514;18.920;2023-04-15T00:35:04;4.00;;;3.50;;
62535;SDS011;63050;47.514;18.920;2023-04-15T00:40:06;4.10;;;3.50;;
62535;SDS011;63050;47.514;18.920;2023-04-15T00:45:13;3.80;;;3.20;;
62535;SDS011;63050;47.514;18.920;2023-04-15T00:50:15;4.40;;;3.40;;
62535;SDS011;63050;47.514;18.920;2023-04-15T00:55:16;6.20;;;5.40;;
62535;SDS011;63050;47.514;18.920;2023-04-15T01:00:17;4.80;;;3.70;;
62535;SDS011;63050;47.514;18.920;2023-04-15T01:05:19;4.30;;;3.20;;
62535;SDS011;63050;47.514;18.920;2023-04-15T01:10:20;4.20;;;3.20;;
62535;SDS011;63050;47.514;18.920;2023-04-15T01:15:22;3.10;;;2.70;;
62535;SDS011;63050;47.514;18.920;2023-04-15T01:20:22;3.90;;;3.30;;
62535;SDS011;63050;47.514;18.920;2023-04-15T01:25:30;3.40;;;3.00;;
62535;SDS011;63050;47.514;18.920;2023-04-15T01:30:34;3.80;;;3.00;;
62535;SDS011;63050;47.514;18.920;2023-04-15T01:35:35;4.20;;;3.50;;
62535;SDS011;63050;47.514;18.920;2023-04-15T01:40:36;4.30;;;3.80;;
62535;SDS011;63050;47.514;18.920;2023-04-15T01:45:37;4.90;;;3.90;;
62535;SDS011;63050;47.514;18.920;2023-04-15T01:50:38;4.10;;;3.30;;
62535;SDS011;63050;47.514;18.920;2023-04-15T01:55:39;4.10;;;3.30;;
62535;SDS011;63050;47.514;18.920;2023-04-15T02:00:40;4.40;;;2.90;;
62535;SDS011;63050;47.514;18.920;2023-04-15T02:05:42;3.40;;;2.90;;
62535;SDS011;63050;47.514;18.920;2023-04-15T02:10:44;4.50;;;3.20;;
62535;SDS011;63050;47.514;18.920;2023-04-15T02:15:48;3.30;;;2.70;;
62535;SDS011;63050;47.514;18.920;2023-04-15T02:20:52;3.20;;;2.90;;
62535;SDS011;63050;47.514;18.920;2023-04-15T02:25:53;3.60;;;3.30;;
62535;SDS011;63050;47.514;18.920;2023-04-15T02:30:54;3.70;;;3.20;;
62535;SDS011;63050;47.514;18.920;2023-04-15T02:35:57;5.30;;;3.80;;
62535;SDS011;63050;47.514;18.920;2023-04-15T02:40:59;5.60;;;4.30;;
62535;SDS011;63050;47.514;18.920;2023-04-15T02:46:02;5.80;;;4.40;;
62535;SDS011;63050;47.514;18.920;2023-04-15T02:51:13;5.90;;;4.00;;
62535;SDS011;63050;47.514;18.920;2023-04-15T02:56:15;4.70;;;4.20;;
62535;SDS011;63050;47.514;18.920;2023-04-15T03:01:16;5.40;;;4.90;;
62535;SDS011;63050;47.514;18.920;2023-04-15T03:06:17;5.80;;;5.10;;
62535;SDS011;63050;47.514;18.920;2023-04-15T03:11:18;5.30;;;4.80;;
62535;SDS011;63050;47.514;18.920;2023-04-15T03:16:19;5.00;;;4.50;;
62535;SDS011;63050;47.514;18.920;2023-04-15T03:21:21;5.80;;;5.20;;
62535;SDS011;63050;47.514;18.920;2023-04-15T03:26:27;6.00;;;5.40;;
62535;SDS011;63050;47.514;18.920;2023-04-15T03:31:29;5.50;;;4.90;;
62535;SDS011;63050;47.514;18.920;2023-04-15T03:36:30;6.30;;;5.20;;
62535;SDS011;63050;47.514;18.920;2023-04-15T03:41:32;5.70;;;5.20;;
62535;SDS011;63050;47.514;18.920;2023-04-15T03:46:33;5.40;;;4.50;;
62535;SDS011;63050;47.514;18.920;2023-04-15T03:51:34;8.10;;;6.80;;
62535;SDS011;63050;47.514;18.920;2023-04-15T03:56:35;7.20;;;6.30;;
62535;SDS011;63050;47.514;18.920;2023-04-15T04:01:36;9.40;;;6.70;;
62535;SDS011;63050;47.514;18.920;2023-04-15T04:06:37;6.70;;;5.90;;
62535;SDS011;63050;47.514;18.920;2023-04-15T04:11:38;7.90;;;7.00;;
62535;SDS011;63050;47.514;18.920;2023-04-15T04:16:40;7.50;;;6.10;;
62535;SDS011;63050;47.514;18.920;2023-04-15T04:21:41;7.40;;;5.90;;
62535;SDS011;63050;47.514;18.920;2023-04-15T04:26:42;8.60;;;7.70;;
62535;SDS011;63050;47.514;18.920;2023-04-15T04:31:43;8.10;;;7.20;;
62535;SDS011;63050;47.514;18.920;2023-04-15T04:36:44;9.20;;;7.00;;
62535;SDS011;63050;47.514;18.920;2023-04-15T04:41:45;10.50;;;8.10;;
62535;SDS011;63050;47.514;18.920;2023-04-15T04:46:46;9.00;;;7.40;;
62535;SDS011;63050;47.514;18.920;2023-04-15T04:51:47;9.10;;;7.40;;
62535;SDS011;63050;47.514;18.920;2023-04-15T04:56:48;7.30;;;6.60;;
62535;SDS011;63050;47.514;18.920;2023-04-15T05:01:49;6.10;;;4.90;;
62535;SDS011;63050;47.514;18.920;2023-04-15T05:06:50;6.00;;;5.00;;
62535;SDS011;63050;47.514;18.920;2023-04-15T05:11:51;5.70;;;4.80;;
62535;SDS011;63050;47.514;18.920;2023-04-15T05:16:52;5.60;;;4.40;;
62535;SDS011;63050;47.514;18.920;2023-04-15T05:21:53;6.30;;;5.10;;
62535;SDS011;63050;47.514;18.920;2023-04-15T05:26:54;7.50;;;4.50;;
62535;SDS011;63050;47.514;18.920;2023-04-15T05:31:56;7.00;;;5.50;;
62535;SDS011;63050;47.514;18.920;2023-04-15T05:36:57;5.10;;;4.40;;
62535;SDS011;63050;47.514;18.920;2023-04-15T05:41:58;5.80;;;4.80;;
62535;SDS011;63050;47.514;18.920;2023-04-15T05:47:00;6.60;;;5.40;;
62535;SDS011;63050;47.514;18.920;2023-04-15T05:52:02;4.70;;;4.10;;
62535;SDS011;63050;47.514;18.920;2023-04-15T05:57:03;6.50;;;4.80;;
62535;SDS011;63050;47.514;18.920;2023-04-15T06:02:04;5.00;;;4.30;;
62535;SDS011;63050;47.514;18.920;2023-04-15T06:07:05;5.60;;;4.30;;
62535;SDS011;63050;47.514;18.920;2023-04-15T06:12:06;4.80;;;4.30;;
62535;SDS011;63050;47.514;18.920;2023-04-15T06:17:11;4.80;;;4.00;;
62535;SDS011;63050;47.514;18.920;2023-04-15T06:22:14;4.90;;;3.90;;
62535;SDS011;63050;47.514;18.920;2023-04-15T06:27:15;5.50;;;4.00;;
62535;SDS011;63050;47.514;18.920;2023-04-15T06:32:16;6.50;;;4.00;;
62535;SDS011;63050;47.514;18.920;2023-04-15T06:37:17;6.30;;;4.80;;
62535;SDS011;63050;47.514;18.920;2023-04-15T06:42:18;7.60;;;4.80;;
62535;SDS011;63050;47.514;18.920;2023-04-15T06:47:19;4.50;;;4.00;;
62535;SDS011;63050;47.514;18.920;2023-04-15T06:52:21;5.20;;;3.80;;
62535;SDS011;63050;47.514;18.920;2023-04-15T06:57:22;5.70;;;3.90;;
62535;SDS011;63050;47.514;18.920;2023-04-15T07:02:22;5.70;;;4.90;;
62535;SDS011;63050;47.514;18.920;2023-04-15T07:07:23;6.10;;;4.80;;
62535;SDS011;63050;47.514;18.920;2023-04-15T07:12:25;5.00;;;4.40;;
62535;SDS011;63050;47.514;18.920;2023-04-15T07:17:25;4.90;;;4.20;;
62535;SDS011;63050;47.514;18.920;2023-04-15T07:22:26;5.10;;;4.40;;
62535;SDS011;63050;47.514;18.920;2023-04-15T07:27:27;5.00;;;3.60;;
62535;SDS011;63050;47.514;18.920;2023-04-15T07:32:28;4.40;;;3.60;;
62535;SDS011;63050;47.514;18.920;2023-04-15T07:37:29;4.70;;;3.30;;
62535;SDS011;63050;47.514;18.920;2023-04-15T07:42:30;4.50;;;3.60;;
62535;SDS011;63050;47.514;18.920;2023-04-15T07:47:30;3.20;;;2.60;;
62535;SDS011;63050;47.514;18.920;2023-04-15T07:52:31;3.80;;;3.00;;
62535;SDS011;63050;47.514;18.920;2023-04-15T07:57:38;5.00;;;3.50;;
62535;SDS011;63050;47.514;18.920;2023-04-15T08:02:39;5.60;;;3.30;;
62535;SDS011;63050;47.514;18.920;2023-04-15T08:07:40;8.00;;;3.60;;
62535;SDS011;63050;47.514;18.920;2023-04-15T08:12:41;7.00;;;4.70;;
62535;SDS011;63050;47.514;18.920;2023-04-15T08:17:42;6.40;;;4.40;;
62535;SDS011;63050;47.514;18.920;2023-04-15T08:22:43;5.90;;;4.10;;
62535;SDS011;63050;47.514;18.920;2023-04-15T08:27:44;5.30;;;4.20;;
62535;SDS011;63050;47.514;18.920;2023-04-15T08:32:46;5.40;;;4.20;;
62535;SDS011;63050;47.514;18.920;2023-04-15T08:37:47;5.60;;;3.60;;
62535;SDS011;63050;47.514;18.920;2023-04-15T08:42:48;13.40;;;5.00;;
62535;SDS011;63050;47.514;18.920;2023-04-15T08:47:51;5.90;;;4.20;;
62535;SDS011;63050;47.514;18.920;2023-04-15T08:52:56;6.60;;;3.50;;
62535;SDS011;63050;47.514;18.920;2023-04-15T08:57:58;4.80;;;3.00;;
62535;SDS011;63050;47.514;18.920;2023-04-15T09:03:04;4.20;;;3.10;;
62535;SDS011;63050;47.514;18.920;2023-04-15T09:08:06;4.20;;;2.90;;
62535;SDS011;63050;47.514;18.920;2023-04-15T09:13:07;3.40;;;2.50;;
62535;SDS011;63050;47.514;18.920;2023-04-15T09:18:10;3.50;;;2.80;;
62535;SDS011;63050;47.514;18.920;2023-04-15T09:23:12;4.80;;;3.10;;
62535;SDS011;63050;47.514;18.920;2023-04-15T09:28:14;4.50;;;3.70;;
62535;SDS011;63050;47.514;18.920;2023-04-15T09:33:15;5.50;;;3.30;;
62535;SDS011;63050;47.514;18.920;2023-04-15T09:38:15;6.40;;;4.20;;
62535;SDS011;63050;47.514;18.920;2023-04-15T09:43:16;3.20;;;2.80;;
62535;SDS011;63050;47.514;18.920;2023-04-15T09:48:18;3.20;;;2.40;;
62535;SDS011;63050;47.514;18.920;2023-04-15T09:53:25;2.70;;;1.70;;
62535;SDS011;63050;47.514;18.920;2023-04-15T09:58:27;3.10;;;2.10;;
62535;SDS011;63050;47.514;18.920;2023-04-15T10:03:32;1.80;;;1.00;;
62535;SDS011;63050;47.514;18.920;2023-04-15T10:08:35;2.10;;;1.30;;
62535;SDS011;63050;47.514;18.920;2023-04-15T10:13:35;2.20;;;1.40;;
62535;SDS011;63050;47.514;18.920;2023-04-15T10:18:40;1.40;;;1.10;;
62535;SDS011;63050;47.514;18.920;2023-04-15T10:23:44;2.20;;;1.20;;
62535;SDS011;63050;47.514;18.920;2023-04-15T10:28:45;2.30;;;0.80;;
62535;SDS011;63050;47.514;18.920;2023-04-15T10:33:49;1.80;;;1.10;;
62535;SDS011;63050;47.514;18.920;2023-04-15T10:38:50;1.40;;;1.10;;
62535;SDS011;63050;47.514;18.920;2023-04-15T10:43:52;1.60;;;1.10;;
62535;SDS011;63050;47.514;18.920;2023-04-15T10:48:54;1.10;;;0.80;;
62535;SDS011;63050;47.514;18.920;2023-04-15T10:53:56;2.40;;;1.70;;
62535;SDS011;63050;47.514;18.920;2023-04-15T10:58:59;1.60;;;1.20;;
62535;SDS011;63050;47.514;18.920;2023-04-15T11:04:00;1.20;;;1.00;;
62535;SDS011;63050;47.514;18.920;2023-04-15T11:09:01;2.40;;;1.60;;
62535;SDS011;63050;47.514;18.920;2023-04-15T11:14:05;1.20;;;1.00;;
62535;SDS011;63050;47.514;18.920;2023-04-15T11:19:15;1.80;;;1.10;;
62535;SDS011;63050;47.514;18.920;2023-04-15T11:24:22;2.20;;;1.30;;
62535;SDS011;63050;47.514;18.920;2023-04-15T11:29:32;1.40;;;0.90;;
62535;SDS011;63050;47.514;18.920;2023-04-15T11:34:33;2.40;;;1.30;;
62535;SDS011;63050;47.514;18.920;2023-04-15T11:39:36;1.70;;;1.00;;
62535;SDS011;63050;47.514;18.920;2023-04-15T11:44:36;1.50;;;0.80;;
62535;SDS011;63050;47.514;18.920;2023-04-15T11:49:37;2.10;;;1.10;;
62535;SDS011;63050;47.514;18.920;2023-04-15T11:54:40;2.80;;;1.60;;
62535;SDS011;63050;47.514;18.920;2023-04-15T11:59:42;3.00;;;1.60;;
62535;SDS011;63050;47.514;18.920;2023-04-15T12:04:43;4.20;;;1.40;;
62535;SDS011;63050;47.514;18.920;2023-04-15T12:09:45;1.90;;;1.20;;
62535;SDS011;63050;47.514;18.920;2023-04-15T12:14:56;1.80;;;0.90;;
62535;SDS011;63050;47.514;18.920;2023-04-15T12:19:57;1.80;;;1.10;;
62535;SDS011;63050;47.514;18.920;2023-04-15T12:24:57;1.60;;;1.20;;
62535;SDS011;63050;47.514;18.920;2023-04-15T12:30:02;1.40;;;0.90;;
62535;SDS011;63050;47.514;18.920;2023-04-15T12:35:07;2.70;;;1.40;;
62535;SDS011;63050;47.514;18.920;2023-04-15T12:40:08;2.80;;;1.10;;
62535;SDS011;63050;47.514;18.920;2023-04-15T12:45:10;2.00;;;1.10;;
62535;SDS011;63050;47.514;18.920;2023-04-15T12:50:11;12.10;;;5.90;;
62535;SDS011;63050;47.514;18.920;2023-04-15T12:55:12;3.30;;;1.80;;
62535;SDS011;63050;47.514;18.920;2023-04-15T13:00:13;2.50;;;1.50;;
62535;SDS011;63050;47.514;18.920;2023-04-15T13:05:15;1.90;;;1.30;;
62535;SDS011;63050;47.514;18.920;2023-04-15T13:10:16;1.80;;;1.30;;
62535;SDS011;63050;47.514;18.920;2023-04-15T13:15:18;2.80;;;2.20;;
62535;SDS011;63050;47.514;18.920;2023-04-15T13:20:21;2.30;;;1.40;;
62535;SDS011;63050;47.514;18.920;2023-04-15T13:25:22;1.80;;;1.20;;
62535;SDS011;63050;47.514;18.920;2023-04-15T13:30:23;2.20;;;1.20;;
62535;SDS011;63050;47.514;18.920;2023-04-15T13:35:24;2.80;;;1.50;;
62535;SDS011;63050;47.514;18.920;2023-04-15T13:40:25;2.20;;;1.60;;
62535;SDS011;63050;47.514;18.920;2023-04-15T13:45:26;1.10;;;0.90;;
62535;SDS011;63050;47.514;18.920;2023-04-15T13:50:27;1.70;;;0.90;;
62535;SDS011;63050;47.514;18.920;2023-04-15T13:55:28;2.40;;;1.10;;
62535;SDS011;63050;47.514;18.920;2023-04-15T14:00:29;2.60;;;1.10;;
62535;SDS011;63050;47.514;18.920;2023-04-15T14:05:31;1.00;;;0.80;;
62535;SDS011;63050;47.514;18.920;2023-04-15T14:10:31;1.70;;;1.00;;
62535;SDS011;63050;47.514;18.920;2023-04-15T14:15:32;3.60;;;1.60;;
62535;SDS011;63050;47.514;18.920;2023-04-15T14:20:33;2.60;;;1.50;;
62535;SDS011;63050;47.514;18.920;2023-04-15T14:25:34;1.70;;;0.80;;
62535;SDS011;63050;47.514;18.920;2023-04-15T14:30:35;2.10;;;1.10;;
62535;SDS011;63050;47.514;18.920;2023-04-15T14:35:36;1.60;;;1.20;;
62535;SDS011;63050;47.514;18.920;2023-04-15T14:40:37;1.70;;;1.10;;
62535;SDS011;63050;47.514;18.920;2023-04-15T14:45:38;1.40;;;0.90;;
62535;SDS011;63050;47.514;18.920;2023-04-15T14:50:39;2.10;;;1.30;;
62535;SDS011;63050;47.514;18.920;2023-04-15T14:55:40;2.10;;;1.20;;
62535;SDS011;63050;47.514;18.920;2023-04-15T15:00:42;2.20;;;1.40;;
62535;SDS011;63050;47.514;18.920;2023-04-15T15:05:44;2.10;;;1.30;;
62535;SDS011;63050;47.514;18.920;2023-04-15T15:10:46;2.10;;;1.50;;
62535;SDS011;63050;47.514;18.920;2023-04-15T15:15:46;1.60;;;1.20;;
62535;SDS011;63050;47.514;18.920;2023-04-15T15:20:48;2.50;;;1.20;;
62535;SDS011;63050;47.514;18.920;2023-04-15T15:25:49;1.30;;;0.80;;
62535;SDS011;63050;47.514;18.920;2023-04-15T15:30:50;2.00;;;0.70;;
62535;SDS011;63050;47.514;18.920;2023-04-15T15:35:51;1.10;;;0.70;;
62535;SDS011;63050;47.514;18.920;2023-04-15T15:40:52;1.40;;;0.70;;
62535;SDS011;63050;47.514;18.920;2023-04-15T15:45:53;2.40;;;0.80;;
62535;SDS011;63050;47.514;18.920;2023-04-15T15:50:54;2.40;;;1.00;;
62535;SDS011;63050;47.514;18.920;2023-04-15T15:55:55;2.80;;;1.40;;
62535;SDS011;63050;47.514;18.920;2023-04-15T16:00:56;8.10;;;4.80;;
62535;SDS011;63050;47.514;18.920;2023-04-15T16:05:57;4.50;;;3.00;;
62535;SDS011;63050;47.514;18.920;2023-04-15T16:10:58;7.70;;;4.10;;
62535;SDS011;63050;47.514;18.920;2023-04-15T16:15:59;4.30;;;2.70;;
62535;SDS011;63050;47.514;18.920;2023-04-15T16:21:00;3.40;;;1.90;;
62535;SDS011;63050;47.514;18.920;2023-04-15T16:26:01;3.10;;;1.90;;
62535;SDS011;63050;47.514;18.920;2023-04-15T16:31:02;2.90;;;2.00;;
62535;SDS011;63050;47.514;18.920;2023-04-15T16:36:03;3.80;;;2.40;;
62535;SDS011;63050;47.514;18.920;2023-04-15T16:41:05;5.20;;;3.00;;
62535;SDS011;63050;47.514;18.920;2023-04-15T16:46:05;2.90;;;2.20;;
62535;SDS011;63050;47.514;18.920;2023-04-15T16:51:07;4.60;;;2.10;;
62535;SDS011;63050;47.514;18.920;2023-04-15T16:56:08;3.50;;;2.60;;
62535;SDS011;63050;47.514;18.920;2023-04-15T17:01:09;2.90;;;1.90;;
62535;SDS011;63050;47.514;18.920;2023-04-15T17:06:10;3.20;;;1.90;;
62535;SDS011;63050;47.514;18.920;2023-04-15T17:11:11;6.30;;;3.70;;
62535;SDS011;63050;47.514;18.920;2023-04-15T17:16:14;6.00;;;4.20;;
62535;SDS011;63050;47.514;18.920;2023-04-15T17:21:15;6.10;;;4.50;;
62535;SDS011;63050;47.514;18.920;2023-04-15T17:26:17;6.00;;;5.10;;
62535;SDS011;63050;47.514;18.920;2023-04-15T17:31:18;6.50;;;5.70;;
62535;SDS011;63050;47.514;18.920;2023-04-15T17:36:19;5.50;;;4.30;;
62535;SDS011;63050;47.514;18.920;2023-04-15T17:41:21;4.70;;;3.90;;
62535;SDS011;63050;47.514;18.920;2023-04-15T17:46:22;6.60;;;6.00;;
62535;SDS011;63050;47.514;18.920;2023-04-15T17:51:23;5.30;;;3.30;;
62535;SDS011;63050;47.514;18.920;2023-04-15T17:56:40;5.10;;;3.50;;
62535;SDS011;63050;47.514;18.920;2023-04-15T18:01:41;5.30;;;3.50;;
62535;SDS011;63050;47.514;18.920;2023-04-15T18:06:42;4.80;;;3.80;;
62535;SDS011;63050;47.514;18.920;2023-04-15T18:11:43;5.30;;;4.20;;
62535;SDS011;63050;47.514;18.920;2023-04-15T18:16:46;4.40;;;3.30;;
62535;SDS011;63050;47.514;18.920;2023-04-15T18:21:50;10.20;;;7.20;;
62535;SDS011;63050;47.514;18.920;2023-04-15T18:26:51;7.00;;;6.30;;
62535;SDS011;63050;47.514;18.920;2023-04-15T18:31:54;5.10;;;3.70;;
62535;SDS011;63050;47.514;18.920;2023-04-15T18:36:57;3.40;;;3.10;;
62535;SDS011;63050;47.514;18.920;2023-04-15T18:41:59;3.40;;;2.80;;
62535;SDS011;63050;47.514;18.920;2023-04-15T18:47:02;3.30;;;2.60;;
62535;SDS011;63050;47.514;18.920;2023-04-15T18:52:03;3.90;;;3.10;;
62535;SDS011;63050;47.514;18.920;2023-04-15T18:57:04;6.70;;;5.40;;
62535;SDS011;63050;47.514;18.920;2023-04-15T19:02:06;8.70;;;5.90;;
62535;SDS011;63050;47.514;18.920;2023-04-15T19:07:08;9.80;;;6.90;;
62535;SDS011;63050;47.514;18.920;2023-04-15T19:12:10;7.10;;;4.90;;
62535;SDS011;63050;47.514;18.920;2023-04-15T19:17:10;4.70;;;3.90;;
62535;SDS011;63050;47.514;18.920;2023-04-15T19:22:11;4.50;;;3.90;;
62535;SDS011;63050;47.514;18.920;2023-04-15T19:27:13;3.50;;;2.70;;
62535;SDS011;63050;47.514;18.920;2023-04-15T19:32:15;6.20;;;5.40;;
62535;SDS011;63050;47.514;18.920;2023-04-15T19:37:16;9.30;;;6.60;;
62535;SDS011;63050;47.514;18.920;2023-04-15T19:42:19;6.00;;;4.60;;
62535;SDS011;63050;47.514;18.920;2023-04-15T19:47:20;4.00;;;3.30;;
62535;SDS011;63050;47.514;18.920;2023-04-15T19:52:22;4.30;;;3.30;;
62535;SDS011;63050;47.514;18.920;2023-04-15T19:57:24;4.50;;;2.90;;
62535;SDS011;63050;47.514;18.920;2023-04-15T20:02:25;4.50;;;3.00;;
62535;SDS011;63050;47.514;18.920;2023-04-15T20:07:28;4.20;;;3.30;;
62535;SDS011;63050;47.514;18.920;2023-04-15T20:12:30;4.00;;;3.20;;
62535;SDS011;63050;47.514;18.920;2023-04-15T20:17:31;3.60;;;2.60;;
62535;SDS011;63050;47.514;18.920;2023-04-15T20:22:32;8.60;;;5.10;;
62535;SDS011;63050;47.514;18.920;2023-04-15T20:27:34;3.40;;;3.10;;
62535;SDS011;63050;47.514;18.920;2023-04-15T20:32:35;3.20;;;2.60;;
62535;SDS011;63050;47.514;18.920;2023-04-15T20:37:37;3.60;;;2.70;;
62535;SDS011;63050;47.514;18.920;2023-04-15T20:42:41;3.00;;;2.70;;
62535;SDS011;63050;47.514;18.920;2023-04-15T20:47:43;3.90;;;3.10;;
62535;SDS011;63050;47.514;18.920;2023-04-15T20:52:44;2.90;;;2.50;;
62535;SDS011;63050;47.514;18.920;2023-04-15T20:57:45;5.60;;;2.80;;
62535;SDS011;63050;47.514;18.920;2023-04-15T21:02:47;3.20;;;2.50;;
62535;SDS011;63050;47.514;18.920;2023-04-15T21:07:48;3.70;;;2.60;;
62535;SDS011;63050;47.514;18.920;2023-04-15T21:12:49;2.80;;;2.20;;
62535;SDS011;63050;47.514;18.920;2023-04-15T21:17:50;2.70;;;2.30;;
62535;SDS011;63050;47.514;18.920;2023-04-15T21:22:51;3.70;;;2.30;;
62535;SDS011;63050;47.514;18.920;2023-04-15T21:27:52;2.70;;;2.30;;
62535;SDS011;63050;47.514;18.920;2023-04-15T21:32:53;2.70;;;2.30;;
62535;SDS011;63050;47.514;18.920;2023-04-15T21:37:55;2.60;;;2.20;;
62535;SDS011;63050;47.514;18.920;2023-04-15T21:42:55;4.90;;;3.20;;
62535;SDS011;63050;47.514;18.920;2023-04-15T21:47:56;4.40;;;3.30;;
62535;SDS011;63050;47.514;18.920;2023-04-15T21:52:57;3.20;;;2.40;;
62535;SDS011;63050;47.514;18.920;2023-04-15T21:57:58;3.80;;;2.70;;
62535;SDS011;63050;47.514;18.920;2023-04-15T22:02:59;3.70;;;2.80;;
62535;SDS011;63050;47.514;18.920;2023-04-15T22:08:00;3.10;;;2.50;;
62535;SDS011;63050;47.514;18.920;2023-04-15T22:13:04;3.40;;;2.60;;
62535;SDS011;63050;47.514;18.920;2023-04-15T22:18:08;2.90;;;1.90;;
62535;SDS011;63050;47.514;18.920;2023-04-15T22:23:11;3.00;;;2.50;;
62535;SDS011;63050;47.514;18.920;2023-04-15T22:28:12;3.90;;;2.60;;
62535;SDS011;63050;47.514;18.920;2023-04-15T22:33:13;3.10;;;2.70;;
62535;SDS011;63050;47.514;18.920;2023-04-15T22:38:13;3.10;;;2.60;;
62535;SDS011;63050;47.514;18.920;2023-04-15T22:43:14;3.50;;;2.70;;
62535;SDS011;63050;47.514;18.920;2023-04-15T22:48:16;3.00;;;2.70;;
62535;SDS011;63050;47.514;18.920;2023-04-15T22:53:17;3.80;;;3.40;;
62535;SDS011;63050;47.514;18.920;2023-04-15T22:58:18;3.40;;;3.10;;
62535;SDS011;63050;47.514;18.920;2023-04-15T23:03:19;2.70;;;2.40;;
62535;SDS011;63050;47.514;18.920;2023-04-15T23:08:20;3.60;;;2.70;;
62535;SDS011;63050;47.514;18.920;2023-04-15T23:13:23;3.90;;;3.00;;
62535;SDS011;63050;47.514;18.920;2023-04-15T23:18:24;5.30;;;3.70;;
62535;SDS011;63050;47.514;18.920;2023-04-15T23:23:25;4.00;;;3.60;;
62535;SDS011;63050;47.514;18.920;2023-04-15T23:28:26;4.10;;;3.00;;
62535;SDS011;63050;47.514;18.920;2023-04-15T23:33:27;3.70;;;3.20;;
62535;SDS011;63050;47.514;18.920;2023-04-15T23:38:27;3.70;;;3.30;;
62535;SDS011;63050;47.514;18.920;2023-04-15T23:43:28;3.50;;;3.20;;
62535;SDS011;63050;47.514;18.920;2023-04-15T23:48:29;4.50;;;4.00;;
62535;SDS011;63050;47.514;18.920;2023-04-15T23:53:30;4.10;;;3.60;;
62535;SDS011;63050;47.514;18.920;2023-04-15T23:58:31;4.10;;;3.70;;
